Time;durP1;ratioP1;P1;durP2;ratioP2;P2;SDS_P1;SDS_P2;PMS_P1;PMS_P2;Temp;Humidity;BMP_temperature;BMP_pressure;BME280_temperature;BME280_humidity;BME280_pressure;Samples;Min_cycle;Max_cycle;Signal;HPM_P1;HPM_P2
2021/05/13 00:00:28;;;;;;;22.63;14.07;;;9.80;99.90;;;;;;5037543;28;20494;-76
2021/05/13 00:02:54;;;;;;;23.60;14.52;;;9.80;99.90;;;;;;5053975;28;20499;-75
2021/05/13 00:05:21;;;;;;;20.70;13.60;;;9.80;99.90;;;;;;5053945;28;20031;-75
2021/05/13 00:07:47;;;;;;;23.05;14.75;;;10.00;99.90;;;;;;5072085;28;20032;-76
2021/05/13 00:10:17;;;;;;;24.05;14.45;;;9.90;99.90;;;;;;5053951;28;20025;-76
2021/05/13 00:12:49;;;;;;;21.17;13.82;;;9.70;99.90;;;;;;5037608;28;20045;-75
2021/05/13 00:15:17;;;;;;;;;;;9.80;99.90;;;;;;5054431;28;20066;-75
2021/05/13 00:17:43;;;;;;;22.95;14.38;;;9.80;99.90;;;;;;5037218;28;20343;-75
2021/05/13 00:20:12;;;;;;;20.40;12.98;;;9.80;99.90;;;;;;5053895;28;20048;-75
2021/05/13 00:22:39;;;;;;;24.17;13.98;;;9.80;99.90;;;;;;5071848;28;20024;-76
2021/05/13 00:25:06;;;;;;;22.70;12.65;;;9.90;99.90;;;;;;5037027;28;20025;-76
2021/05/13 00:27:32;;;;;;;22.08;13.27;;;9.90;99.90;;;;;;5071743;28;20099;-75
2021/05/13 00:29:58;;;;;;;22.63;14.25;;;9.80;99.90;;;;;;5071765;28;20055;-76
2021/05/13 00:32:23;;;;;;;19.42;13.23;;;9.70;99.90;;;;;;5053692;28;20124;-76
2021/05/13 00:34:49;;;;;;;25.48;14.15;;;9.80;99.90;;;;;;5071706;28;20032;-76
2021/05/13 00:37:15;;;;;;;26.92;15.20;;;9.80;99.90;;;;;;5071478;28;20028;-75
2021/05/13 00:39:40;;;;;;;23.10;13.55;;;9.70;99.90;;;;;;5073387;28;20534;-76
2021/05/13 00:42:06;;;;;;;21.38;13.32;;;9.70;99.90;;;;;;5075763;28;20082;-75
2021/05/13 00:44:37;;;;;;;21.58;13.68;;;9.90;99.90;;;;;;5057711;28;20036;-75
2021/05/13 00:47:03;;;;;;;23.17;13.57;;;9.80;99.90;;;;;;5057401;28;20020;-75
2021/05/13 00:49:30;;;;;;;21.58;15.02;;;9.80;99.90;;;;;;5040987;28;20476;-75
2021/05/13 00:51:55;;;;;;;19.33;13.35;;;9.60;99.90;;;;;;5057667;28;20024;-76
2021/05/13 00:54:22;;;;;;;17.95;12.98;;;9.80;99.90;;;;;;5057696;28;20437;-76
2021/05/13 00:56:48;;;;;;;22.25;14.82;;;9.70;99.90;;;;;;5075319;28;20025;-75
2021/05/13 00:59:14;;;;;;;22.05;13.75;;;9.70;99.90;;;;;;5075373;28;20511;-76
2021/05/13 01:04:12;;;;;;;20.50;13.95;;;9.70;99.90;;;;;;5075217;28;20054;-76
2021/05/13 01:06:38;;;;;;;23.27;14.48;;;9.80;99.90;;;;;;5075201;28;20024;-76
2021/05/13 01:09:08;;;;;;;21.92;12.45;;;9.80;99.90;;;;;;5057349;28;20025;-75
2021/05/13 01:11:36;;;;;;;18.40;12.77;;;9.80;99.90;;;;;;5057479;28;20085;-75
2021/05/13 01:14:12;;;;;;;19.27;13.35;;;9.90;99.90;;;;;;5075130;28;20111;-75
2021/05/13 01:16:50;;;;;;;17.98;12.48;;;9.90;99.90;;;;;;5057069;28;20024;-76
2021/05/13 01:19:17;;;;;;;15.50;11.30;;;9.90;99.90;;;;;;5040476;28;20054;-76
2021/05/13 01:21:43;;;;;;;21.20;13.30;;;9.90;99.90;;;;;;5057057;28;20031;-76
2021/05/13 01:24:10;;;;;;;17.27;11.70;;;9.90;99.90;;;;;;5057030;28;20028;-76
2021/05/13 01:26:36;;;;;;;19.27;12.93;;;9.80;99.90;;;;;;5056669;28;20017;-76
2021/05/13 01:29:03;;;;;;;23.35;12.05;;;9.60;99.90;;;;;;5074764;28;20028;-75
2021/05/13 01:31:29;;;;;;;21.02;11.85;;;9.50;99.90;;;;;;5056855;28;20027;-75
2021/05/13 01:33:55;;;;;;;19.45;13.55;;;9.50;99.90;;;;;;5056923;28;20028;-75
2021/05/13 01:36:21;;;;;;;18.15;11.38;;;9.50;99.90;;;;;;5056786;28;20396;-75
2021/05/13 01:38:47;;;;;;;16.77;11.32;;;9.60;99.90;;;;;;5074743;28;20025;-75
2021/05/13 01:41:12;;;;;;;19.10;11.13;;;9.60;99.90;;;;;;5056732;28;20050;-76
2021/05/13 01:43:38;;;;;;;15.48;10.23;;;9.50;99.90;;;;;;5056488;28;20507;-75
2021/05/13 01:46:04;;;;;;;16.20;10.68;;;9.60;99.90;;;;;;5056441;28;20033;-75
2021/05/13 01:48:33;;;;;;;17.20;10.65;;;9.70;99.90;;;;;;5056458;28;20079;-75
2021/05/13 01:50:59;;;;;;;17.23;11.35;;;9.80;99.90;;;;;;5074230;28;20074;-76
2021/05/13 01:53:24;;;;;;;14.52;9.25;;;9.60;99.90;;;;;;5074428;28;20545;-76
2021/05/13 01:55:50;;;;;;;17.63;11.30;;;9.50;99.90;;;;;;5074175;28;20032;-76
2021/05/13 01:58:16;;;;;;;15.18;10.55;;;9.60;99.90;;;;;;5056344;28;20033;-76
2021/05/13 02:00:44;;;;;;;17.65;9.77;;;9.50;99.90;;;;;;5039697;28;20037;-76
2021/05/13 02:03:11;;;;;;;16.83;11.40;;;9.40;99.90;;;;;;5056148;28;20029;-76
2021/05/13 02:05:37;;;;;;;13.23;8.93;;;9.40;99.90;;;;;;5056197;28;20025;-75
2021/05/13 02:08:03;;;;;;;14.60;8.50;;;9.30;99.90;;;;;;5074287;28;20383;-75
2021/05/13 02:10:29;;;;;;;18.65;9.63;;;9.30;99.90;;;;;;5056124;28;20081;-76
2021/05/13 02:12:56;;;;;;;16.20;8.85;;;9.40;99.90;;;;;;5056052;28;20012;-76
2021/05/13 02:15:23;;;;;;;10.98;7.90;;;9.40;99.90;;;;;;5056125;28;20397;-75
2021/05/13 02:17:49;;;;;;;18.00;8.98;;;9.40;99.90;;;;;;5039257;28;20103;-76
2021/05/13 02:20:20;;;;;;;13.40;9.00;;;9.30;99.90;;;;;;5056131;28;20508;-75
2021/05/13 02:22:46;;;;;;;13.80;8.82;;;9.30;99.90;;;;;;5073837;28;20028;-76
2021/05/13 02:25:12;;;;;;;16.83;9.05;;;9.50;99.90;;;;;;5055657;28;20058;-76
2021/05/13 02:27:39;;;;;;;10.27;8.73;;;9.50;99.90;;;;;;5073565;28;20016;-76
2021/05/13 02:30:07;;;;;;;17.30;8.55;;;9.40;99.90;;;;;;5073974;28;20024;-76
2021/05/13 02:32:33;;;;;;;15.10;9.25;;;9.50;99.90;;;;;;5055828;28;20028;-76
2021/05/13 02:34:59;;;;;;;10.32;7.57;;;9.30;99.90;;;;;;5055755;28;20036;-75
2021/05/13 02:37:24;;;;;;;12.07;8.15;;;9.30;99.90;;;;;;5055560;28;20028;-76
2021/05/13 02:39:50;;;;;;;11.18;7.60;;;9.30;99.90;;;;;;5038986;28;20112;-76
2021/05/13 02:42:17;;;;;;;10.43;7.85;;;9.20;99.90;;;;;;5073505;28;20528;-75
2021/05/13 02:44:43;;;;;;;15.63;7.80;;;9.10;99.90;;;;;;5055657;28;20115;-75
2021/05/13 02:47:10;;;;;;;13.50;8.88;;;9.10;99.90;;;;;;5073264;28;20120;-75
2021/05/13 02:49:36;;;;;;;13.52;7.93;;;9.10;99.90;;;;;;5055402;28;20048;-75
2021/05/13 02:52:03;;;;;;;10.63;7.28;;;9.00;99.90;;;;;;5055349;28;20032;-75
2021/05/13 02:54:29;;;;;;;11.65;8.52;;;8.90;99.90;;;;;;5073161;28;20111;-75
2021/05/13 02:56:54;;;;;;;10.63;6.57;;;8.90;99.90;;;;;;5038427;28;20149;-75
2021/05/13 02:59:21;;;;;;;9.88;6.85;;;8.90;99.90;;;;;;5055191;28;20031;-76
2021/05/13 03:01:46;;;;;;;10.60;7.00;;;8.80;99.90;;;;;;5054686;28;20025;-75
2021/05/13 03:04:12;;;;;;;13.40;8.07;;;8.90;99.90;;;;;;5072932;28;20024;-76
2021/05/13 03:06:38;;;;;;;12.13;6.18;;;9.00;99.90;;;;;;5054805;28;20447;-76
2021/05/13 03:09:05;;;;;;;9.27;6.40;;;9.00;99.90;;;;;;5072856;28;20052;-75
2021/05/13 03:11:31;;;;;;;8.10;5.82;;;9.00;99.90;;;;;;5054897;28;20028;-75
2021/05/13 03:13:59;;;;;;;8.73;6.18;;;9.20;99.90;;;;;;5072844;28;20404;-76
2021/05/13 03:16:25;;;;;;;11.43;6.20;;;9.30;99.90;;;;;;5054758;28;20039;-75
2021/05/13 03:18:53;;;;;;;8.88;6.30;;;9.40;99.90;;;;;;5072827;28;20028;-76
2021/05/13 03:21:31;;;;;;;11.82;5.68;;;9.30;99.90;;;;;;5054820;28;20024;-75
2021/05/13 03:24:04;;;;;;;7.55;5.20;;;9.30;99.90;;;;;;5072724;28;20027;-75
2021/05/13 03:27:26;;;;;;;7.57;5.10;;;9.20;99.90;;;;;;5072668;28;20025;-75
2021/05/13 03:29:17;;;;;;;7.18;5.28;;;9.20;99.90;;;;;;5061589;28;20107;-76
2021/05/13 03:31:43;;;;;;;9.30;5.40;;;9.00;99.90;;;;;;5072414;28;20020;-76
2021/05/13 03:34:09;;;;;;;7.13;5.05;;;9.00;99.90;;;;;;5072551;28;20340;-75
2021/05/13 03:36:34;;;;;;;5.28;4.78;;;8.90;99.90;;;;;;5072367;28;20024;-75
2021/05/13 03:39:02;;;;;;;8.88;4.95;;;9.10;99.90;;;;;;5072751;28;20028;-75
2021/05/13 03:41:28;;;;;;;13.27;6.47;;;9.10;99.90;;;;;;5037766;28;20031;-75
2021/05/13 03:43:54;;;;;;;6.45;5.57;;;9.20;99.90;;;;;;5054254;28;20028;-75
2021/05/13 03:46:19;;;;;;;10.15;5.45;;;9.10;99.90;;;;;;5072087;28;20016;-75
2021/05/13 03:48:45;;;;;;;9.65;6.45;;;8.90;99.90;;;;;;5054391;28;20108;-75
2021/05/13 03:51:11;;;;;;;7.30;5.07;;;8.80;99.90;;;;;;5072319;28;20029;-75
2021/05/13 03:53:37;;;;;;;9.70;5.57;;;8.80;99.90;;;;;;5054396;28;20039;-76
2021/05/13 03:56:03;;;;;;;9.70;6.15;;;8.80;99.90;;;;;;5054188;28;20036;-75
2021/05/13 03:58:33;;;;;;;10.13;6.63;;;8.90;99.90;;;;;;5072093;28;20100;-76
2021/05/13 04:03:25;;;;;;;8.48;5.72;;;9.00;99.90;;;;;;5054184;28;20539;-75
2021/05/13 04:05:51;;;;;;;7.68;5.82;;;9.20;99.90;;;;;;5072034;28;20080;-76
2021/05/13 04:08:16;;;;;;;9.02;5.88;;;9.20;99.90;;;;;;5072042;28;20028;-76
2021/05/13 04:10:43;;;;;;;8.98;6.00;;;9.30;99.90;;;;;;5054036;28;20028;-76
2021/05/13 04:13:12;;;;;;;7.78;6.00;;;9.20;99.90;;;;;;5071584;28;20043;-76
2021/05/13 04:15:37;;;;;;;11.10;5.00;;;9.10;99.90;;;;;;5071412;28;20345;-76
2021/05/13 04:18:04;;;;;;;8.50;5.93;;;9.20;99.90;;;;;;5072246;28;20023;-75
2021/05/13 04:20:30;;;;;;;8.73;5.57;;;9.40;99.90;;;;;;5072015;28;20070;-76
2021/05/13 04:22:55;;;;;;;11.27;5.95;;;9.30;99.90;;;;;;5053819;28;20419;-75
2021/05/13 04:25:21;;;;;;;10.68;6.25;;;9.20;99.90;;;;;;5071676;28;20082;-75
2021/05/13 04:27:48;;;;;;;13.15;6.82;;;9.10;99.90;;;;;;5071674;28;20029;-76
2021/05/13 04:30:14;;;;;;;6.50;5.78;;;9.00;99.90;;;;;;5053740;28;20025;-76
2021/05/13 04:32:40;;;;;;;7.57;5.70;;;9.00;99.90;;;;;;5071851;28;20099;-76
2021/05/13 04:35:07;;;;;;;9.00;5.40;;;9.00;99.90;;;;;;5071923;28;20029;-76
2021/05/13 04:37:32;;;;;;;6.75;5.15;;;9.00;99.90;;;;;;5053679;28;20028;-76
2021/05/13 04:39:58;;;;;;;12.75;5.32;;;9.00;99.90;;;;;;5053763;28;20024;-75
2021/05/13 04:42:24;;;;;;;8.10;5.07;;;9.00;99.90;;;;;;5037013;28;20047;-76
2021/05/13 04:44:52;;;;;;;8.32;4.50;;;9.00;99.90;;;;;;5071717;28;20107;-76
2021/05/13 04:49:51;;;;;;;5.80;4.18;;;9.20;99.90;;;;;;5053758;28;20492;-75
2021/05/13 04:52:18;;;;;;;7.40;4.28;;;9.10;99.90;;;;;;5053620;28;20050;-75
2021/05/13 04:54:48;;;;;;;7.40;3.85;;;9.10;99.90;;;;;;5053661;28;20029;-75
2021/05/13 04:57:14;;;;;;;4.63;3.80;;;9.20;99.90;;;;;;5053431;28;20021;-76
2021/05/13 04:59:40;;;;;;;8.23;4.13;;;9.20;99.90;;;;;;5053549;28;20032;-76
2021/05/13 05:02:06;;;;;;;9.43;4.18;;;9.20;99.90;;;;;;5071485;28;20061;-76
2021/05/13 05:04:31;;;;;;;4.00;3.55;;;9.10;99.90;;;;;;5071341;28;20036;-75
2021/05/13 05:06:57;;;;;;;5.80;3.70;;;9.00;99.90;;;;;;5071348;28;20457;-75
2021/05/13 05:09:23;;;;;;;8.23;3.38;;;9.10;99.90;;;;;;5071333;28;20021;-76
2021/05/13 05:11:49;;;;;;;3.65;3.35;;;9.00;99.90;;;;;;5071459;28;20032;-76
2021/05/13 05:14:14;;;;;;;7.43;3.38;;;9.10;99.90;;;;;;5071539;28;20479;-76
2021/05/13 05:16:40;;;;;;;5.57;3.40;;;9.20;99.90;;;;;;5036641;28;20392;-76
2021/05/13 05:19:06;;;;;;;8.38;3.20;;;9.20;99.90;;;;;;5053502;28;20111;-75
2021/05/13 05:21:31;;;;;;;4.88;3.50;;;9.30;99.90;;;;;;5053300;28;20020;-76
2021/05/13 05:23:57;;;;;;;5.05;3.47;;;9.30;99.90;;;;;;5053290;28;20028;-76
2021/05/13 05:26:23;;;;;;;4.35;3.25;;;9.40;99.90;;;;;;5055625;28;20033;-75
2021/05/13 05:28:49;;;;;;;7.57;3.63;;;9.30;99.90;;;;;;5074864;28;20492;-76
2021/05/13 05:31:14;;;;;;;4.65;3.63;;;9.30;99.90;;;;;;5040243;28;20025;-75
2021/05/13 05:33:40;;;;;;;4.00;3.55;;;9.20;99.90;;;;;;5074912;28;20429;-75
2021/05/13 05:36:06;;;;;;;5.75;3.38;;;9.20;99.90;;;;;;5074712;28;20103;-76
2021/05/13 05:38:32;;;;;;;4.40;3.58;;;9.30;99.90;;;;;;5074693;28;20106;-75
2021/05/13 05:40:57;;;;;;;4.20;3.03;;;9.20;99.90;;;;;;5074676;28;20024;-75
2021/05/13 05:43:23;;;;;;;6.53;3.95;;;9.10;99.90;;;;;;5074562;28;20033;-75
2021/05/13 05:45:49;;;;;;;9.23;3.65;;;9.00;99.90;;;;;;5056559;28;20032;-75
2021/05/13 05:48:14;;;;;;;4.35;3.22;;;9.00;99.90;;;;;;5056404;28;20032;-76
2021/05/13 05:50:41;;;;;;;5.53;3.67;;;9.00;99.90;;;;;;5056644;28;20570;-75
2021/05/13 05:53:08;;;;;;;3.30;3.00;;;9.00;99.90;;;;;;5043676;28;20047;-76
2021/05/13 05:55:35;;;;;;;10.13;3.30;;;9.00;99.90;;;;;;5056403;28;20028;-76
2021/05/13 05:58:01;;;;;;;3.20;2.90;;;9.00;99.90;;;;;;5074329;28;20024;-76
2021/05/13 06:00:28;;;;;;;10.10;3.55;;;9.10;99.90;;;;;;5060780;28;20065;-76
2021/05/13 06:02:54;;;;;;;7.93;3.20;;;9.00;99.90;;;;;;5059724;28;20078;-76
2021/05/13 06:05:21;;;;;;;7.45;3.38;;;9.10;99.90;;;;;;5094269;28;20038;-76
2021/05/13 06:07:46;;;;;;;5.10;3.10;;;9.20;99.90;;;;;;5076231;28;20027;-76
2021/05/13 06:10:14;;;;;;;4.53;2.80;;;9.20;99.90;;;;;;5076316;28;20020;-76
2021/05/13 06:12:41;;;;;;;4.53;2.83;;;9.20;99.90;;;;;;5094319;28;20024;-75
2021/05/13 06:15:09;;;;;;;4.28;2.85;;;9.20;99.90;;;;;;5070575;28;20460;-76
2021/05/13 06:17:37;;;;;;;4.55;2.58;;;9.20;99.90;;;;;;5057403;28;20028;-75
2021/05/13 06:20:05;;;;;;;3.67;2.47;;;9.20;99.90;;;;;;5073927;28;20036;-75
2021/05/13 06:22:31;;;;;;;4.03;3.10;;;9.30;99.90;;;;;;5039037;28;20055;-76
2021/05/13 06:24:57;;;;;;;4.95;2.67;;;9.30;99.90;;;;;;5073743;28;20024;-75
2021/05/13 06:27:23;;;;;;;4.70;3.15;;;9.40;99.90;;;;;;5055686;28;20208;-75
2021/05/13 06:29:49;;;;;;;4.85;4.32;;;9.50;99.90;;;;;;5055800;28;20494;-75
2021/05/13 06:32:16;;;;;;;6.38;2.92;;;9.80;99.90;;;;;;5055964;28;20020;-76
2021/05/13 06:34:42;;;;;;;3.13;2.70;;;9.80;99.90;;;;;;5058509;28;20074;-76
2021/05/13 06:37:07;;;;;;;2.63;2.42;;;9.80;99.90;;;;;;5072400;28;20029;-76
2021/05/13 06:39:33;;;;;;;6.32;3.33;;;9.70;99.90;;;;;;5073491;28;20430;-75
2021/05/13 06:42:04;;;;;;;4.78;2.88;;;9.80;99.90;;;;;;5055715;28;20086;-75
2021/05/13 06:44:31;;;;;;;3.00;2.70;;;9.80;99.90;;;;;;5073782;28;20103;-76
2021/05/13 06:46:57;;;;;;;5.07;2.85;;;9.70;99.90;;;;;;5055262;28;20038;-76
2021/05/13 06:49:23;;;;;;;6.70;3.20;;;9.70;99.90;;;;;;5072321;28;20024;-76
2021/05/13 06:51:49;;;;;;;4.32;3.08;;;9.60;99.90;;;;;;5073235;28;20082;-76
2021/05/13 06:54:14;;;;;;;7.78;2.67;;;9.70;99.90;;;;;;5073703;28;20029;-75
2021/05/13 06:56:41;;;;;;;4.05;2.90;;;9.80;99.90;;;;;;5054933;28;20051;-75
2021/05/13 06:59:07;;;;;;;4.88;2.97;;;9.60;99.90;;;;;;5073160;28;20020;-76
2021/05/13 07:01:34;;;;;;;2.72;2.47;;;9.70;99.90;;;;;;5088671;28;20023;-75
2021/05/13 07:04:04;;;;;;;5.45;3.00;;;9.70;99.90;;;;;;5093177;28;20124;-75
2021/05/13 07:06:32;;;;;;;3.28;2.70;;;9.60;99.90;;;;;;5075024;28;20024;-76
2021/05/13 07:08:58;;;;;;;4.05;2.70;;;9.70;99.90;;;;;;5075067;28;20024;-76
2021/05/13 07:11:23;;;;;;;2.80;2.60;;;9.80;99.90;;;;;;5090240;28;20506;-76
2021/05/13 07:13:49;;;;;;;3.00;2.05;;;9.90;99.90;;;;;;5037206;28;20025;-76
2021/05/13 07:16:15;;;;;;;3.00;2.17;;;9.80;99.90;;;;;;5073025;28;20472;-76
2021/05/13 07:18:40;;;;;;;3.45;2.92;;;9.80;99.90;;;;;;5054622;28;20025;-75
2021/05/13 07:21:06;;;;;;;3.53;2.05;;;9.80;99.90;;;;;;5072918;28;20028;-75
2021/05/13 07:23:32;;;;;;;4.25;3.08;;;9.90;99.90;;;;;;5054858;28;20028;-76
2021/05/13 07:25:59;;;;;;;4.07;2.65;;;9.90;99.90;;;;;;5054711;28;20021;-76
2021/05/13 07:28:24;;;;;;;4.30;3.75;;;10.00;99.90;;;;;;5054724;28;20016;-75
2021/05/13 07:30:50;;;;;;;2.80;2.58;;;10.00;99.90;;;;;;5072614;28;20021;-76
2021/05/13 07:33:16;;;;;;;2.92;2.65;;;10.00;99.90;;;;;;5072585;28;20091;-76
2021/05/13 07:35:41;;;;;;;5.28;1.95;;;10.10;99.90;;;;;;5037611;28;20386;-76
2021/05/13 07:38:07;;;;;;;2.78;2.35;;;10.20;99.90;;;;;;5054473;28;20468;-75
2021/05/13 07:40:36;;;;;;;5.10;2.83;;;10.20;99.90;;;;;;5054537;28;20048;-75
2021/05/13 07:43:01;;;;;;;3.40;3.10;;;10.40;99.90;;;;;;5054485;28;20020;-75
2021/05/13 07:45:28;;;;;;;5.28;3.47;;;10.70;99.90;;;;;;5072366;28;20387;-76
2021/05/13 07:47:54;;;;;;;4.45;3.55;;;10.70;99.90;;;;;;5072035;28;20063;-76
2021/05/13 07:50:22;;;;;;;5.97;3.83;;;10.70;99.90;;;;;;5072456;28;20032;-76
2021/05/13 07:52:49;;;;;;;7.70;3.75;;;10.70;99.90;;;;;;5072282;28;20025;-76
2021/05/13 07:55:15;;;;;;;9.85;4.03;;;10.90;99.90;;;;;;5072273;28;20070;-76
2021/05/13 07:57:43;;;;;;;8.57;4.47;;;11.10;99.90;;;;;;5072148;28;20513;-76
2021/05/13 08:00:10;;;;;;;6.00;4.13;;;11.20;99.90;;;;;;5052706;28;20425;-76
2021/05/13 08:02:35;;;;;;;5.53;4.18;;;11.10;99.90;;;;;;5054141;28;20075;-76
2021/05/13 08:05:01;;;;;;;9.60;3.92;;;11.10;99.90;;;;;;5054051;28;20024;-76
2021/05/13 08:07:27;;;;;;;6.25;4.80;;;11.00;99.90;;;;;;5071999;28;20027;-76
2021/05/13 08:09:53;;;;;;;13.50;6.50;;;11.00;99.90;;;;;;5054476;28;20020;-75
2021/05/13 08:12:19;;;;;;;6.68;5.10;;;11.10;99.90;;;;;;5054169;28;20519;-76
2021/05/13 08:14:44;;;;;;;10.32;6.53;;;11.00;99.90;;;;;;5054078;28;20036;-76
2021/05/13 08:17:11;;;;;;;11.68;7.05;;;10.90;99.90;;;;;;5037282;28;20099;-75
2021/05/13 08:19:38;;;;;;;9.25;5.90;;;11.10;99.90;;;;;;5054202;28;20103;-76
2021/05/13 08:22:04;;;;;;;9.80;6.85;;;11.20;99.90;;;;;;5054005;28;20042;-75
2021/05/13 08:24:30;;;;;;;10.65;7.03;;;11.00;99.90;;;;;;5071955;28;20476;-76
2021/05/13 08:26:58;;;;;;;11.02;5.70;;;11.00;99.90;;;;;;5053750;28;20031;-76
2021/05/13 08:29:25;;;;;;;4.95;4.32;;;11.00;99.90;;;;;;5071922;28;20021;-76
2021/05/13 08:31:51;;;;;;;9.07;6.32;;;10.90;99.90;;;;;;5054013;28;20021;-75
2021/05/13 08:34:16;;;;;;;11.38;6.75;;;11.00;99.90;;;;;;5053903;28;20070;-76
2021/05/13 08:36:42;;;;;;;7.45;6.32;;;11.00;99.90;;;;;;5071675;28;20099;-76
2021/05/13 08:39:08;;;;;;;9.68;5.15;;;11.00;99.90;;;;;;5053885;28;20115;-76
2021/05/13 08:41:34;;;;;;;5.28;4.38;;;11.00;99.90;;;;;;5071739;28;20666;-76
2021/05/13 08:44:00;;;;;;;9.05;5.78;;;11.10;99.90;;;;;;5071154;28;20048;-76
2021/05/13 08:46:26;;;;;;;9.35;4.47;;;11.20;99.90;;;;;;5071384;28;20048;-76
2021/05/13 08:48:51;;;;;;;9.95;6.40;;;11.50;99.90;;;;;;5053505;28;20051;-76
2021/05/13 08:51:18;;;;;;;10.55;5.63;;;11.60;99.90;;;;;;5053369;28;20029;-76
2021/05/13 08:53:58;;;;;;;10.07;7.03;;;11.50;99.90;;;;;;5071479;28;20025;-76
2021/05/13 08:56:26;;;;;;;9.82;5.80;;;11.60;99.90;;;;;;5053627;28;20052;-75
2021/05/13 08:58:52;;;;;;;4.10;2.95;;;11.50;99.90;;;;;;5053553;28;20020;-75
2021/05/13 09:01:24;;;;;;;8.13;6.05;;;11.50;99.90;;;;;;5082035;28;20432;-75
2021/05/13 09:03:53;;;;;;;7.85;5.47;;;11.60;99.90;;;;;;5060224;28;20047;-76
2021/05/13 09:06:28;;;;;;;3.42;1.85;;;11.30;99.90;;;;;;5060369;28;20020;-76
2021/05/13 09:09:13;;;;;;;8.50;5.07;;;11.30;99.90;;;;;;5095699;28;20070;-75
2021/05/13 09:11:53;;;;;;;5.97;4.50;;;11.50;99.90;;;;;;5077496;28;20020;-75
2021/05/13 09:14:27;;;;;;;2.85;2.58;;;11.50;99.90;;;;;;5077461;28;20028;-76
2021/05/13 09:16:54;;;;;;;8.13;4.15;;;11.70;99.90;;;;;;5095430;28;20023;-75
2021/05/13 09:19:23;;;;;;;1.02;0.98;;;11.80;99.90;;;;;;5095491;28;20048;-75
2021/05/13 09:21:55;;;;;;;8.25;5.32;;;11.70;99.90;;;;;;5077193;28;20027;-76
2021/05/13 09:24:42;;;;;;;10.05;4.88;;;11.70;99.90;;;;;;5095337;28;20565;-76
2021/05/13 09:27:14;;;;;;;7.85;6.35;;;11.80;99.90;;;;;;5060283;28;20422;-75
2021/05/13 09:29:40;;;;;;;;;;;11.80;99.90;;;;;;5085609;28;20009;-75
2021/05/13 09:32:17;;;;;;;11.15;6.60;;;11.80;99.90;;;;;;5074925;28;20275;-75
2021/05/13 09:34:43;;;;;;;11.35;6.13;;;11.40;99.90;;;;;;5056998;28;20480;-76
2021/05/13 09:37:09;;;;;;;8.05;6.18;;;11.50;99.90;;;;;;5074764;28;20024;-76
2021/05/13 09:39:35;;;;;;;12.10;6.05;;;11.50;99.90;;;;;;5074849;28;20033;-76
2021/05/13 09:42:03;;;;;;;11.70;7.30;;;11.60;99.90;;;;;;5074993;28;20029;-76
2021/05/13 09:44:41;;;;;;;10.43;6.57;;;11.60;99.90;;;;;;5074651;28;20025;-76
2021/05/13 09:47:24;;;;;;;15.60;8.30;;;11.50;99.90;;;;;;5074478;28;20515;-76
2021/05/13 09:50:02;;;;;;;9.80;7.03;;;11.60;99.90;;;;;;5074616;28;20380;-75
2021/05/13 09:52:41;;;;;;;8.60;6.50;;;11.60;99.90;;;;;;5056776;28;20499;-76
2021/05/13 09:55:12;;;;;;;11.48;7.38;;;11.70;99.90;;;;;;5074651;28;20035;-76
2021/05/13 09:57:38;;;;;;;9.10;5.53;;;11.80;99.90;;;;;;5056405;28;20036;-75
2021/05/13 10:00:09;;;;;;;13.23;7.78;;;11.80;99.90;;;;;;5073257;28;20040;-76
2021/05/13 10:02:36;;;;;;;11.90;7.53;;;12.10;99.90;;;;;;5074333;28;20036;-76
2021/05/13 10:05:04;;;;;;;14.40;8.27;;;12.20;99.90;;;;;;5074189;28;20136;-76
2021/05/13 10:07:30;;;;;;;10.90;6.57;;;12.10;99.90;;;;;;5074194;28;20028;-76
2021/05/13 10:09:56;;;;;;;9.07;5.32;;;12.30;99.90;;;;;;5074308;28;20689;-76
2021/05/13 10:12:21;;;;;;;13.57;7.45;;;12.40;99.90;;;;;;5056608;28;20029;-75
2021/05/13 10:14:50;;;;;;;13.38;7.22;;;12.60;99.90;;;;;;5074312;28;20056;-76
2021/05/13 10:17:17;;;;;;;12.48;6.40;;;12.20;99.90;;;;;;5056112;28;20032;-76
2021/05/13 10:19:55;;;;;;;12.43;7.00;;;12.40;99.90;;;;;;5074105;28;20097;-76
2021/05/13 10:22:21;;;;;;;14.57;7.53;;;12.40;99.90;;;;;;5074120;28;20056;-76
2021/05/13 10:24:47;;;;;;;11.82;6.35;;;12.60;99.90;;;;;;5073939;28;20071;-76
2021/05/13 10:27:17;;;;;;;12.05;7.28;;;12.40;99.90;;;;;;5073856;28;20028;-76
2021/05/13 10:29:44;;;;;;;12.65;6.75;;;12.40;99.90;;;;;;5073875;28;20032;-75
2021/05/13 10:32:22;;;;;;;7.55;4.88;;;12.20;99.90;;;;;;5039178;28;20432;-75
2021/05/13 10:35:05;;;;;;;10.70;5.70;;;12.20;99.90;;;;;;5072591;28;20025;-75
2021/05/13 10:37:37;;;;;;;9.43;5.43;;;12.30;99.90;;;;;;5073650;28;20025;-76
2021/05/13 10:40:29;;;;;;;;;;;12.50;99.90;;;;;;5056197;28;20024;-75
2021/05/13 10:43:05;;;;;;;10.32;5.90;;;12.60;99.90;;;;;;5073776;28;20326;-75
2021/05/13 10:45:49;;;;;;;8.98;3.13;;;12.70;99.90;;;;;;5039005;28;20027;-75
2021/05/13 10:48:20;;;;;;;5.18;3.20;;;12.40;99.90;;;;;;5055613;28;20028;-76
2021/05/13 10:51:04;;;;;;;13.48;5.75;;;12.10;99.90;;;;;;5055567;28;20396;-76
2021/05/13 10:56:32;;;;;;;12.93;7.55;;;11.30;99.90;;;;;;5073238;28;20400;-75
2021/05/13 10:59:02;;;;;;;13.23;6.10;;;11.10;99.90;;;;;;5073392;28;20060;-75
2021/05/13 11:01:45;;;;;;;10.68;5.07;;;10.80;99.90;;;;;;5055558;28;20021;-76
2021/05/13 11:04:23;;;;;;;9.43;6.15;;;10.60;99.90;;;;;;5038452;28;20037;-76
2021/05/13 11:06:56;;;;;;;10.15;5.75;;;10.50;99.90;;;;;;5073093;28;20047;-75
2021/05/13 11:12:08;;;;;;;10.25;5.70;;;10.70;99.90;;;;;;5072887;28;20058;-75
2021/05/13 11:14:53;;;;;;;7.25;4.60;;;10.70;99.90;;;;;;5055239;28;20029;-76
2021/05/13 11:18:03;;;;;;;8.90;5.97;;;10.80;99.90;;;;;;5071452;28;20028;-76
2021/05/13 11:20:38;;;;;;;4.70;2.40;;;10.70;99.90;;;;;;5072880;28;20029;-75
2021/05/13 11:23:08;;;;;;;6.72;4.45;;;10.50;99.90;;;;;;5037533;28;20032;-75
2021/05/13 11:26:03;;;;;;;8.15;4.78;;;10.50;99.90;;;;;;5072611;28;20126;-75
2021/05/13 11:28:40;;;;;;;6.50;3.70;;;10.60;99.90;;;;;;5051137;28;20098;-75
2021/05/13 11:31:06;;;;;;;7.47;4.35;;;10.60;99.90;;;;;;5054739;28;20021;-75
2021/05/13 11:33:51;;;;;;;5.03;4.50;;;10.70;99.90;;;;;;5054516;28;20033;-75
2021/05/13 11:36:23;;;;;;;13.25;5.35;;;11.00;99.90;;;;;;5072543;28;20523;-75
2021/05/13 11:38:58;;;;;;;9.38;4.40;;;11.10;99.90;;;;;;5054585;28;20028;-75
2021/05/13 11:41:24;;;;;;;7.63;5.38;;;11.10;99.90;;;;;;5039324;28;20032;-77
2021/05/13 11:43:50;;;;;;;5.63;4.28;;;11.40;99.90;;;;;;5071594;28;20373;-75
2021/05/13 11:46:19;;;;;;;5.82;4.07;;;11.70;99.90;;;;;;5054355;28;20077;-75
2021/05/13 11:48:48;;;;;;;6.03;3.95;;;11.90;99.90;;;;;;5072473;28;20440;-76
2021/05/13 11:51:21;;;;;;;5.90;3.72;;;12.00;99.90;;;;;;5071398;28;20016;-76
2021/05/13 11:53:48;;;;;;;5.47;3.08;;;11.80;99.90;;;;;;5072130;28;20024;-75
2021/05/13 11:56:16;;;;;;;5.20;3.28;;;11.90;99.90;;;;;;5054262;28;20102;-75
2021/05/13 11:58:46;;;;;;;2.60;2.17;;;12.00;99.90;;;;;;5072306;28;20446;-75
2021/05/13 12:01:26;;;;;;;4.03;1.85;;;12.00;99.90;;;;;;5054220;28;20158;-75
2021/05/13 12:03:55;;;;;;;2.00;1.80;;;12.00;99.90;;;;;;5072056;28;20040;-76
2021/05/13 12:06:23;;;;;;;6.80;3.90;;;11.90;99.90;;;;;;5072069;28;20104;-76
2021/05/13 12:08:48;;;;;;;6.68;3.63;;;11.90;99.90;;;;;;5072267;28;20021;-76
2021/05/13 12:11:25;;;;;;;4.82;3.45;;;11.70;99.90;;;;;;5072305;28;20025;-75
2021/05/13 12:13:55;;;;;;;11.43;5.00;;;11.40;99.90;;;;;;5072185;28;20081;-75
2021/05/13 12:16:23;;;;;;;6.82;5.00;;;11.50;99.90;;;;;;5071982;28;20028;-75
2021/05/13 12:18:52;;;;;;;7.15;4.70;;;11.20;99.90;;;;;;5072219;28;20099;-75
2021/05/13 12:21:19;;;;;;;7.72;4.72;;;11.00;99.90;;;;;;5071979;28;20024;-75
2021/05/13 12:23:47;;;;;;;9.20;5.13;;;11.00;99.90;;;;;;5071806;28;20036;-76
2021/05/13 12:26:19;;;;;;;8.55;2.85;;;11.30;99.90;;;;;;5053890;28;20452;-77
2021/05/13 12:28:46;;;;;;;8.27;5.00;;;11.30;99.90;;;;;;5053876;28;20024;-75
2021/05/13 12:31:27;;;;;;;8.07;4.80;;;11.40;99.90;;;;;;5071880;28;20038;-76
2021/05/13 12:33:53;;;;;;;9.70;3.88;;;11.40;99.90;;;;;;5071913;28;20480;-76
2021/05/13 12:36:19;;;;;;;5.35;2.83;;;11.20;99.90;;;;;;5074562;28;20071;-76
2021/05/13 12:38:45;;;;;;;6.03;2.50;;;11.10;99.90;;;;;;5075995;28;20051;-75
2021/05/13 12:41:29;;;;;;;2.88;1.83;;;11.20;99.90;;;;;;5057896;28;20571;-76
2021/05/13 12:44:16;;;;;;;4.28;1.52;;;11.40;99.90;;;;;;5057848;28;20048;-76
2021/05/13 12:46:49;;;;;;;1.88;1.45;;;11.30;99.90;;;;;;5057819;28;20029;-76
2021/05/13 12:49:25;;;;;;;3.05;2.03;;;11.20;99.90;;;;;;5075756;28;20020;-76
2021/05/13 12:52:03;;;;;;;3.92;2.35;;;11.10;99.90;;;;;;5075712;28;20024;-75
2021/05/13 12:54:31;;;;;;;5.32;2.53;;;10.90;99.90;;;;;;5075522;28;20063;-75
2021/05/13 12:57:16;;;;;;;5.32;2.33;;;11.10;99.90;;;;;;5075473;28;20024;-75
2021/05/13 12:59:51;;;;;;;2.30;1.67;;;11.20;99.90;;;;;;5057582;28;20025;-76
2021/05/13 13:02:28;;;;;;;3.35;1.90;;;10.90;99.90;;;;;;5057432;28;20031;-75
2021/05/13 13:04:59;;;;;;;3.90;2.08;;;10.70;99.90;;;;;;5075278;28;20033;-76
2021/05/13 13:07:35;;;;;;;2.38;1.55;;;10.40;99.90;;;;;;5075196;28;20373;-76